Carnival Miracle — H3VS — position and weather

sailwx.info

Track history (hours):
 
Tides and Currents Weather Stations Pressure Air Temp Water Temp Dewpoint Dewpoint Depression Visibility Wind Speed Wind Dir Waves Ship Positions

Carnival Miracle

Operator: Carnival Cruise Lines

Last reported at 2019-Jul-14 21:52 UTC. Time now 2019-Jul-20 13:44 UTC.
Position N 27°40' W 082°36'.

Type: Ship. MMSI: 35437000.

Date/timePositionNaut miles runAvg speedWind from/ knotsBaromVisibWave heightAir tempDewpointWater temp
2019-Jul-14 21:52N 27°40' W 082°36'615.6
2019-Jul-14 21:30N 27°45' W 082°32'612.2
2019-Jul-14 21:00N 27°49' W 082°27'611.5
2019-Jul-14 20:30N 27°55' W 082°27'2 3.8
2019-Jul-14 20:00N 27°57' W 082°27'0 0.5
2019-Jul-14 19:29N 27°57' W 082°27'0 0.0
2019-Jul-14 18:59N 27°57' W 082°27'0 0.0
2019-Jul-14 18:29N 27°57' W 082°27'0 0.0
2019-Jul-14 17:59N 27°57' W 082°27'0 0.0
2019-Jul-14 17:28N 27°57' W 082°27'0 0.0
2019-Jul-14 16:58N 27°57' W 082°27'0 0.0
2019-Jul-14 16:28N 27°57' W 082°27'0 0.0
2019-Jul-14 15:58N 27°57' W 082°27'0 0.0
2019-Jul-14 15:31N 27°57' W 082°27'0 0.0
2019-Jul-14 15:00N 27°57' W 082°27'0 0.0
2019-Jul-14 14:30N 27°57' W 082°27'0 0.0
2019-Jul-14 14:00N 27°57' W 082°27'0 0.0
2019-Jul-14 13:30N 27°57' W 082°27'0 0.0
2019-Jul-14 12:59N 27°57' W 082°27'0 0.0
2019-Jul-14 12:29N 27°57' W 082°27'0 0.0
2019-Jul-14 11:59N 27°57' W 082°27'0 0.0
2019-Jul-14 11:29N 27°57' W 082°27'0 0.0
2019-Jul-14 10:59N 27°57' W 082°27'0 0.3
2019-Jul-14 10:30N 27°57' W 082°27'2 3.6
2019-Jul-14 10:00N 27°55' W 082°27'510.0
2019-Jul-14 09:30N 27°50' W 082°27'611.7
2019-Jul-14 09:00N 27°46' W 082°31'714.3
2019-Jul-14 08:30N 27°40' W 082°36'814.3
2019-Jul-14 07:55N 27°36' W 082°45'48014.1
2019-Jul-12 21:56N 20°36' W 086°58'511.6
2019-Jul-12 21:30N 20°31' W 086°59'2 4.3
2019-Jul-12 21:00N 20°29' W 086°59'6 0.5
2019-Jul-12 10:34N 20°25' W 087°03'  
2019-Jul-07 22:02N 27°40' W 082°36'016.0
2019-Jul-07 22:00N 27°41' W 082°35'714.1
2019-Jul-07 21:30N 27°47' W 082°31'611.3
2019-Jul-07 21:00N 27°51' W 082°27'5 9.0
2019-Jul-07 20:30N 27°55' W 082°27'2 3.2
2019-Jul-07 20:00N 27°57' W 082°27'0 0.1
2019-Jul-07 19:28N 27°57' W 082°27'0 0.0
2019-Jul-07 18:58N 27°57' W 082°27'0 0.0
2019-Jul-07 18:28N 27°57' W 082°27'0 0.0
2019-Jul-07 17:58N 27°57' W 082°27'0 0.0
2019-Jul-07 17:28N 27°57' W 082°27'0 0.0
2019-Jul-07 17:00N 27°57' W 082°27'0 0.0
2019-Jul-07 16:30N 27°57' W 082°27'0 0.0
2019-Jul-07 16:00N 27°57' W 082°27'0 0.0
2019-Jul-07 15:30N 27°57' W 082°27'0 0.0
2019-Jul-07 15:00N 27°57' W 082°27'0 0.0
2019-Jul-07 14:29N 27°57' W 082°27'0 0.0
2019-Jul-07 13:59N 27°57' W 082°27'0 0.0
2019-Jul-07 13:29N 27°57' W 082°27'0 0.0
2019-Jul-07 12:59N 27°57' W 082°27'0 0.0
2019-Jul-07 12:28N 27°57' W 082°27'0 0.0
2019-Jul-07 11:58N 27°57' W 082°27'0 0.0
2019-Jul-07 11:28N 27°57' W 082°27'0 0.0
2019-Jul-07 10:58N 27°57' W 082°27'0 0.0
2019-Jul-07 10:28N 27°57' W 082°27'1 2.1
2019-Jul-07 10:00N 27°56' W 082°27'3 6.5
2019-Jul-07 09:30N 27°53' W 082°26'611.8
2019-Jul-07 09:00N 27°48' W 082°30'713.7
2019-Jul-07 08:30N 27°42' W 082°34'1115.8
2019-Jul-07 07:48N 27°36' W 082°45'47914.0
2019-Jul-05 21:41N 20°36' W 086°57'318.8
2019-Jul-05 21:31N 20°33' W 086°58'4 8.4
2019-Jul-05 21:00N 20°29' W 086°59'0 0.0
2019-Jul-05 20:28N 20°29' W 086°59'0 0.0
2019-Jul-05 19:58N 20°29' W 086°59'0 0.0
2019-Jul-05 19:31N 20°29' W 086°59'0 0.0
2019-Jul-05 18:57N 20°29' W 086°59'0 0.0
2019-Jul-05 18:30N 20°29' W 086°59'0 0.0
2019-Jul-05 18:00N 20°29' W 086°59'0 0.0
2019-Jul-05 17:30N 20°29' W 086°59'0 0.0
2019-Jul-05 16:59N 20°29' W 086°59'0 0.0
2019-Jul-05 16:29N 20°29' W 086°59'0 0.0
2019-Jul-05 15:59N 20°29' W 086°59'0 0.0
2019-Jul-05 15:29N 20°29' W 086°59'0 0.0
2019-Jul-05 14:59N 20°29' W 086°59'0 0.0
2019-Jul-05 14:28N 20°29' W 086°59'0 0.0
2019-Jul-05 13:58N 20°29' W 086°59'0 0.0
2019-Jul-05 13:28N 20°29' W 086°59'0 0.0
2019-Jul-05 12:58N 20°29' W 086°59'0 0.0
2019-Jul-05 12:31N 20°29' W 086°59'0 0.0
2019-Jul-05 12:00N 20°29' W 086°59'0 0.0
2019-Jul-05 11:30N 20°29' W 086°59'0 0.0
2019-Jul-05 11:00N 20°29' W 086°59'0 0.0
2019-Jul-05 10:27N 20°29' W 086°59'0 0.1
2019-Jul-05 10:00N 20°29' W 086°59'2 4.9
2019-Jul-05 09:30N 20°28' W 087°01'714.0
2019-Jul-05 09:00N 20°22' W 087°05'  
Track history (hours):
 
Tides and Currents Weather Stations Pressure Air Temp Water Temp Dewpoint Dewpoint Depression Visibility Wind Speed Wind Dir Waves Ship Positions

Carnival Miracle

Operator: Carnival Cruise Lines

Last reported at 2019-Jul-14 21:52 UTC. Time now 2019-Jul-20 13:44 UTC.
Position N 27°40' W 082°36'.

Type: Ship. MMSI: 35437000.

Date/timePositionNaut miles runAvg speedWind from/ knotsBaromVisibWave heightAir tempDewpointWater temp
2019-Jul-14 21:52N 27°40' W 082°36'615.6
2019-Jul-14 21:30N 27°45' W 082°32'612.2
2019-Jul-14 21:00N 27°49' W 082°27'611.5
2019-Jul-14 20:30N 27°55' W 082°27'2 3.8
2019-Jul-14 20:00N 27°57' W 082°27'0 0.5
2019-Jul-14 19:29N 27°57' W 082°27'0 0.0
2019-Jul-14 18:59N 27°57' W 082°27'0 0.0
2019-Jul-14 18:29N 27°57' W 082°27'0 0.0
2019-Jul-14 17:59N 27°57' W 082°27'0 0.0
2019-Jul-14 17:28N 27°57' W 082°27'0 0.0
2019-Jul-14 16:58N 27°57' W 082°27'0 0.0
2019-Jul-14 16:28N 27°57' W 082°27'0 0.0
2019-Jul-14 15:58N 27°57' W 082°27'0 0.0
2019-Jul-14 15:31N 27°57' W 082°27'0 0.0
2019-Jul-14 15:00N 27°57' W 082°27'0 0.0
2019-Jul-14 14:30N 27°57' W 082°27'0 0.0
2019-Jul-14 14:00N 27°57' W 082°27'0 0.0
2019-Jul-14 13:30N 27°57' W 082°27'0 0.0
2019-Jul-14 12:59N 27°57' W 082°27'0 0.0
2019-Jul-14 12:29N 27°57' W 082°27'0 0.0
2019-Jul-14 11:59N 27°57' W 082°27'0 0.0
2019-Jul-14 11:29N 27°57' W 082°27'0 0.0
2019-Jul-14 10:59N 27°57' W 082°27'0 0.3
2019-Jul-14 10:30N 27°57' W 082°27'2 3.6
2019-Jul-14 10:00N 27°55' W 082°27'510.0
2019-Jul-14 09:30N 27°50' W 082°27'611.7
2019-Jul-14 09:00N 27°46' W 082°31'714.3
2019-Jul-14 08:30N 27°40' W 082°36'814.3
2019-Jul-14 07:55N 27°36' W 082°45'48014.1
2019-Jul-12 21:56N 20°36' W 086°58'511.6
2019-Jul-12 21:30N 20°31' W 086°59'2 4.3
2019-Jul-12 21:00N 20°29' W 086°59'6 0.5
2019-Jul-12 10:34N 20°25' W 087°03'  
2019-Jul-07 22:02N 27°40' W 082°36'016.0
2019-Jul-07 22:00N 27°41' W 082°35'714.1
2019-Jul-07 21:30N 27°47' W 082°31'611.3
2019-Jul-07 21:00N 27°51' W 082°27'5 9.0
2019-Jul-07 20:30N 27°55' W 082°27'2 3.2
2019-Jul-07 20:00N 27°57' W 082°27'0 0.1
2019-Jul-07 19:28N 27°57' W 082°27'0 0.0
2019-Jul-07 18:58N 27°57' W 082°27'0 0.0
2019-Jul-07 18:28N 27°57' W 082°27'0 0.0
2019-Jul-07 17:58N 27°57' W 082°27'0 0.0
2019-Jul-07 17:28N 27°57' W 082°27'0 0.0
2019-Jul-07 17:00N 27°57' W 082°27'0 0.0
2019-Jul-07 16:30N 27°57' W 082°27'0 0.0
2019-Jul-07 16:00N 27°57' W 082°27'0 0.0
2019-Jul-07 15:30N 27°57' W 082°27'0 0.0
2019-Jul-07 15:00N 27°57' W 082°27'0 0.0
2019-Jul-07 14:29N 27°57' W 082°27'0 0.0
2019-Jul-07 13:59N 27°57' W 082°27'0 0.0
2019-Jul-07 13:29N 27°57' W 082°27'0 0.0
2019-Jul-07 12:59N 27°57' W 082°27'0 0.0
2019-Jul-07 12:28N 27°57' W 082°27'0 0.0
2019-Jul-07 11:58N 27°57' W 082°27'0 0.0
2019-Jul-07 11:28N 27°57' W 082°27'0 0.0
2019-Jul-07 10:58N 27°57' W 082°27'0 0.0
2019-Jul-07 10:28N 27°57' W 082°27'1 2.1
2019-Jul-07 10:00N 27°56' W 082°27'3 6.5
2019-Jul-07 09:30N 27°53' W 082°26'611.8
2019-Jul-07 09:00N 27°48' W 082°30'713.7
2019-Jul-07 08:30N 27°42' W 082°34'1115.8
2019-Jul-07 07:48N 27°36' W 082°45'47914.0
2019-Jul-05 21:41N 20°36' W 086°57'318.8
2019-Jul-05 21:31N 20°33' W 086°58'4 8.4
2019-Jul-05 21:00N 20°29' W 086°59'0 0.0
2019-Jul-05 20:28N 20°29' W 086°59'0 0.0
2019-Jul-05 19:58N 20°29' W 086°59'0 0.0
2019-Jul-05 19:31N 20°29' W 086°59'0 0.0
2019-Jul-05 18:57N 20°29' W 086°59'0 0.0
2019-Jul-05 18:30N 20°29' W 086°59'0 0.0
2019-Jul-05 18:00N 20°29' W 086°59'0 0.0
2019-Jul-05 17:30N 20°29' W 086°59'0 0.0
2019-Jul-05 16:59N 20°29' W 086°59'0 0.0
2019-Jul-05 16:29N 20°29' W 086°59'0 0.0
2019-Jul-05 15:59N 20°29' W 086°59'0 0.0
2019-Jul-05 15:29N 20°29' W 086°59'0 0.0
2019-Jul-05 14:59N 20°29' W 086°59'0 0.0
2019-Jul-05 14:28N 20°29' W 086°59'0 0.0
2019-Jul-05 13:58N 20°29' W 086°59'0 0.0
2019-Jul-05 13:28N 20°29' W 086°59'0 0.0
2019-Jul-05 12:58N 20°29' W 086°59'0 0.0
2019-Jul-05 12:31N 20°29' W 086°59'0 0.0
2019-Jul-05 12:00N 20°29' W 086°59'0 0.0
2019-Jul-05 11:30N 20°29' W 086°59'0 0.0
2019-Jul-05 11:00N 20°29' W 086°59'0 0.0
2019-Jul-05 10:27N 20°29' W 086°59'0 0.1
2019-Jul-05 10:00N 20°29' W 086°59'2 4.9
2019-Jul-05 09:30N 20°28' W 087°01'714.0
2019-Jul-05 09:00N 20°22' W 087°05'  

Dump ship's entire track history